Terminal Aerodrome Forecast
Issued by NWS

Home | Current Version | Previous Version | Text Only | Print | Product List | Glossary On
Versions: 1 2 3 4 5 6 7 8 9 10 11 12 13 14 15 16 17 18 19
495
FTUS43 KILX 231736
TAFDEC
TAF
KDEC 231736Z 2318/2418 31012KT P6SM SCT030
     FM232200 29005KT P6SM VCTS FEW030CB SCT040
     FM240300 30004KT P6SM FEW040 FEW200
      TEMPO 2409/2413 4SM BR
     FM241300 35005KT P6SM FEW045=

USA.gov is the U.S. government's official web portal to all federal, state and local government web resources and services.